sensor_id;sensor_type;location;lat;lon;timestamp;temperature;humidity
22838;DHT22;11585;51.450;-0.240;2023-05-10T00:03:13;15.10;99.90
22838;DHT22;11585;51.450;-0.240;2023-05-10T00:05:39;15.00;99.90
22838;DHT22;11585;51.450;-0.240;2023-05-10T00:11:08;15.00;99.90
22838;DHT22;11585;51.450;-0.240;2023-05-10T00:13:34;15.00;99.90
22838;DHT22;11585;51.450;-0.240;2023-05-10T00:15:59;15.00;99.90
22838;DHT22;11585;51.450;-0.240;2023-05-10T00:18:49;15.00;99.90
22838;DHT22;11585;51.450;-0.240;2023-05-10T00:21:15;15.00;99.90
22838;DHT22;11585;51.450;-0.240;2023-05-10T00:23:40;15.00;99.90
22838;DHT22;11585;51.450;-0.240;2023-05-10T00:26:06;15.00;99.90
22838;DHT22;11585;51.450;-0.240;2023-05-10T00:28:32;15.00;99.90
22838;DHT22;11585;51.450;-0.240;2023-05-10T00:30:58;15.00;99.90
22838;DHT22;11585;51.450;-0.240;2023-05-10T00:33:24;15.00;99.90
22838;DHT22;11585;51.450;-0.240;2023-05-10T00:35:49;15.00;99.90
22838;DHT22;11585;51.450;-0.240;2023-05-10T00:38:34;15.00;99.90
22838;DHT22;11585;51.450;-0.240;2023-05-10T00:41:00;15.00;99.90
22838;DHT22;11585;51.450;-0.240;2023-05-10T00:43:26;14.90;99.90
22838;DHT22;11585;51.450;-0.240;2023-05-10T00:45:52;15.00;99.90
22838;DHT22;11585;51.450;-0.240;2023-05-10T00:48:38;14.90;99.90
22838;DHT22;11585;51.450;-0.240;2023-05-10T00:51:04;14.90;99.90
22838;DHT22;11585;51.450;-0.240;2023-05-10T00:53:34;14.90;99.90
22838;DHT22;11585;51.450;-0.240;2023-05-10T00:56:01;14.90;99.90
22838;DHT22;11585;51.450;-0.240;2023-05-10T00:58:34;14.90;99.90
22838;DHT22;11585;51.450;-0.240;2023-05-10T01:01:00;14.90;99.90
22838;DHT22;11585;51.450;-0.240;2023-05-10T01:03:27;14.80;99.90
22838;DHT22;11585;51.450;-0.240;2023-05-10T01:05:53;14.90;99.90
22838;DHT22;11585;51.450;-0.240;2023-05-10T01:08:38;14.90;99.90
22838;DHT22;11585;51.450;-0.240;2023-05-10T01:11:04;14.90;99.90
22838;DHT22;11585;51.450;-0.240;2023-05-10T01:13:43;14.90;99.90
22838;DHT22;11585;51.450;-0.240;2023-05-10T01:16:20;14.90;99.90
22838;DHT22;11585;51.450;-0.240;2023-05-10T01:18:47;14.80;99.90
22838;DHT22;11585;51.450;-0.240;2023-05-10T01:32:28;14.80;99.90
22838;DHT22;11585;51.450;-0.240;2023-05-10T01:35:02;14.80;99.90
22838;DHT22;11585;51.450;-0.240;2023-05-10T01:37:56;14.90;99.90
22838;DHT22;11585;51.450;-0.240;2023-05-10T01:40:35;14.80;99.90
22838;DHT22;11585;51.450;-0.240;2023-05-10T01:43:05;14.80;99.90
22838;DHT22;11585;51.450;-0.240;2023-05-10T01:46:10;14.80;99.90
22838;DHT22;11585;51.450;-0.240;2023-05-10T01:48:55;14.80;99.90
22838;DHT22;11585;51.450;-0.240;2023-05-10T01:51:27;14.80;99.90
22838;DHT22;11585;51.450;-0.240;2023-05-10T01:54:02;14.80;99.90
22838;DHT22;11585;51.450;-0.240;2023-05-10T01:56:31;14.80;99.90
22838;DHT22;11585;51.450;-0.240;2023-05-10T02:02:39;14.80;99.90
22838;DHT22;11585;51.450;-0.240;2023-05-10T02:05:08;14.80;99.90
22838;DHT22;11585;51.450;-0.240;2023-05-10T02:07:36;14.70;99.90
22838;DHT22;11585;51.450;-0.240;2023-05-10T02:16:46;14.80;99.90
22838;DHT22;11585;51.450;-0.240;2023-05-10T02:25:58;14.90;99.90
22838;DHT22;11585;51.450;-0.240;2023-05-10T02:28:25;14.70;99.90
22838;DHT22;11585;51.450;-0.240;2023-05-10T02:30:53;14.80;99.90
22838;DHT22;11585;51.450;-0.240;2023-05-10T02:33:20;14.70;99.90
22838;DHT22;11585;51.450;-0.240;2023-05-10T02:35:50;14.70;99.90
22838;DHT22;11585;51.450;-0.240;2023-05-10T02:41:03;14.70;99.90
22838;DHT22;11585;51.450;-0.240;2023-05-10T02:43:32;14.70;99.90
22838;DHT22;11585;51.450;-0.240;2023-05-10T02:45:58;14.70;99.90
22838;DHT22;11585;51.450;-0.240;2023-05-10T02:51:50;14.70;99.90
22838;DHT22;11585;51.450;-0.240;2023-05-10T02:54:22;14.60;99.90
22838;DHT22;11585;51.450;-0.240;2023-05-10T02:56:59;14.60;99.90
22838;DHT22;11585;51.450;-0.240;2023-05-10T02:59:31;14.60;99.90
22838;DHT22;11585;51.450;-0.240;2023-05-10T03:01:59;14.60;99.90
22838;DHT22;11585;51.450;-0.240;2023-05-10T03:04:25;14.70;99.90
22838;DHT22;11585;51.450;-0.240;2023-05-10T03:06:51;14.60;99.90
22838;DHT22;11585;51.450;-0.240;2023-05-10T03:18:41;14.60;99.90
22838;DHT22;11585;51.450;-0.240;2023-05-10T03:21:11;14.60;99.90
22838;DHT22;11585;51.450;-0.240;2023-05-10T03:23:47;14.60;99.90
22838;DHT22;11585;51.450;-0.240;2023-05-10T03:26:24;14.60;99.90
22838;DHT22;11585;51.450;-0.240;2023-05-10T03:29:10;14.50;99.90
22838;DHT22;11585;51.450;-0.240;2023-05-10T03:31:38;14.60;99.90
22838;DHT22;11585;51.450;-0.240;2023-05-10T03:34:04;14.60;99.90
22838;DHT22;11585;51.450;-0.240;2023-05-10T03:36:29;14.60;99.90
22838;DHT22;11585;51.450;-0.240;2023-05-10T03:45:19;14.60;99.90
22838;DHT22;11585;51.450;-0.240;2023-05-10T03:47:45;14.50;99.90
22838;DHT22;11585;51.450;-0.240;2023-05-10T03:50:31;14.50;99.90
22838;DHT22;11585;51.450;-0.240;2023-05-10T03:52:57;14.60;99.90
22838;DHT22;11585;51.450;-0.240;2023-05-10T03:55:23;14.50;99.90
22838;DHT22;11585;51.450;-0.240;2023-05-10T03:57:49;14.50;99.90
22838;DHT22;11585;51.450;-0.240;2023-05-10T04:00:19;14.50;99.90
22838;DHT22;11585;51.450;-0.240;2023-05-10T04:02:45;14.50;99.90
22838;DHT22;11585;51.450;-0.240;2023-05-10T04:05:10;14.50;99.90
22838;DHT22;11585;51.450;-0.240;2023-05-10T04:07:36;14.50;99.90
22838;DHT22;11585;51.450;-0.240;2023-05-10T04:13:24;14.50;99.90
22838;DHT22;11585;51.450;-0.240;2023-05-10T04:15:49;14.50;99.90
22838;DHT22;11585;51.450;-0.240;2023-05-10T04:18:34;14.50;99.90
22838;DHT22;11585;51.450;-0.240;2023-05-10T04:21:00;14.50;99.90
22838;DHT22;11585;51.450;-0.240;2023-05-10T04:23:27;14.50;99.90
22838;DHT22;11585;51.450;-0.240;2023-05-10T04:25:52;14.50;99.90
22838;DHT22;11585;51.450;-0.240;2023-05-10T04:31:46;14.50;99.90
22838;DHT22;11585;51.450;-0.240;2023-05-10T04:34:11;14.40;99.90
22838;DHT22;11585;51.450;-0.240;2023-05-10T04:36:37;14.40;99.90
22838;DHT22;11585;51.450;-0.240;2023-05-10T04:42:06;14.40;99.90
22838;DHT22;11585;51.450;-0.240;2023-05-10T04:44:32;14.40;99.90
22838;DHT22;11585;51.450;-0.240;2023-05-10T04:46:58;14.40;99.90
22838;DHT22;11585;51.450;-0.240;2023-05-10T04:52:46;14.40;99.90
22838;DHT22;11585;51.450;-0.240;2023-05-10T04:55:11;14.40;99.90
22838;DHT22;11585;51.450;-0.240;2023-05-10T04:57:37;14.30;99.90
22838;DHT22;11585;51.450;-0.240;2023-05-10T05:03:24;14.30;99.90
22838;DHT22;11585;51.450;-0.240;2023-05-10T05:05:50;14.30;99.90
22838;DHT22;11585;51.450;-0.240;2023-05-10T05:11:38;14.30;99.90
22838;DHT22;11585;51.450;-0.240;2023-05-10T05:14:03;14.30;99.90
22838;DHT22;11585;51.450;-0.240;2023-05-10T05:16:30;14.20;99.90
22838;DHT22;11585;51.450;-0.240;2023-05-10T05:22:19;14.20;99.90
22838;DHT22;11585;51.450;-0.240;2023-05-10T05:28:14;14.10;99.90
22838;DHT22;11585;51.450;-0.240;2023-05-10T05:30:39;14.10;99.90
22838;DHT22;11585;51.450;-0.240;2023-05-10T05:33:05;14.10;99.90
22838;DHT22;11585;51.450;-0.240;2023-05-10T05:35:31;14.10;99.90
22838;DHT22;11585;51.450;-0.240;2023-05-10T05:37:57;14.10;99.90
22838;DHT22;11585;51.450;-0.240;2023-05-10T05:40:22;14.10;99.90
22838;DHT22;11585;51.450;-0.240;2023-05-10T05:42:48;14.10;99.90
22838;DHT22;11585;51.450;-0.240;2023-05-10T05:45:14;14.10;99.90
22838;DHT22;11585;51.450;-0.240;2023-05-10T05:47:40;14.10;99.90
22838;DHT22;11585;51.450;-0.240;2023-05-10T05:50:11;14.10;99.90
22838;DHT22;11585;51.450;-0.240;2023-05-10T05:52:37;14.10;99.90
22838;DHT22;11585;51.450;-0.240;2023-05-10T05:55:02;14.10;99.90
22838;DHT22;11585;51.450;-0.240;2023-05-10T05:57:28;14.10;99.90
22838;DHT22;11585;51.450;-0.240;2023-05-10T06:03:16;14.10;99.90
22838;DHT22;11585;51.450;-0.240;2023-05-10T06:05:42;14.00;99.90
22838;DHT22;11585;51.450;-0.240;2023-05-10T06:08:10;14.10;99.90
22838;DHT22;11585;51.450;-0.240;2023-05-10T06:10:36;14.10;99.90
22838;DHT22;11585;51.450;-0.240;2023-05-10T06:13:01;14.10;99.90
22838;DHT22;11585;51.450;-0.240;2023-05-10T06:15:27;14.00;99.90
22838;DHT22;11585;51.450;-0.240;2023-05-10T06:17:53;14.00;99.90
22838;DHT22;11585;51.450;-0.240;2023-05-10T06:20:18;14.00;99.90
22838;DHT22;11585;51.450;-0.240;2023-05-10T06:22:44;14.00;99.90
22838;DHT22;11585;51.450;-0.240;2023-05-10T06:25:13;14.10;99.90
22838;DHT22;11585;51.450;-0.240;2023-05-10T06:27:40;14.00;99.90
22838;DHT22;11585;51.450;-0.240;2023-05-10T06:33:09;14.10;99.90
22838;DHT22;11585;51.450;-0.240;2023-05-10T06:35:35;14.00;99.90
22838;DHT22;11585;51.450;-0.240;2023-05-10T06:38:25;14.10;99.90
22838;DHT22;11585;51.450;-0.240;2023-05-10T06:40:51;14.10;99.90
22838;DHT22;11585;51.450;-0.240;2023-05-10T06:43:17;14.00;99.90
22838;DHT22;11585;51.450;-0.240;2023-05-10T06:45:42;14.10;99.90
22838;DHT22;11585;51.450;-0.240;2023-05-10T06:54:54;14.10;99.90
22838;DHT22;11585;51.450;-0.240;2023-05-10T06:57:20;14.10;99.90
22838;DHT22;11585;51.450;-0.240;2023-05-10T07:03:07;14.10;99.90
22838;DHT22;11585;51.450;-0.240;2023-05-10T07:05:33;14.10;99.90
22838;DHT22;11585;51.450;-0.240;2023-05-10T07:07:59;14.10;99.90
22838;DHT22;11585;51.450;-0.240;2023-05-10T07:10:25;14.10;99.90
22838;DHT22;11585;51.450;-0.240;2023-05-10T07:12:50;14.10;99.90
22838;DHT22;11585;51.450;-0.240;2023-05-10T07:15:16;14.20;99.90
22838;DHT22;11585;51.450;-0.240;2023-05-10T07:17:42;14.20;99.90
22838;DHT22;11585;51.450;-0.240;2023-05-10T07:20:10;14.20;99.90
22838;DHT22;11585;51.450;-0.240;2023-05-10T07:22:36;14.20;99.90
22838;DHT22;11585;51.450;-0.240;2023-05-10T07:25:01;14.20;99.90
22838;DHT22;11585;51.450;-0.240;2023-05-10T07:27:27;14.30;99.90
22838;DHT22;11585;51.450;-0.240;2023-05-10T07:29:54;14.30;99.90
22838;DHT22;11585;51.450;-0.240;2023-05-10T07:32:21;14.30;99.90
22838;DHT22;11585;51.450;-0.240;2023-05-10T07:34:47;14.30;99.90
22838;DHT22;11585;51.450;-0.240;2023-05-10T07:37:12;14.30;99.90
22838;DHT22;11585;51.450;-0.240;2023-05-10T07:39:40;14.30;99.90
22838;DHT22;11585;51.450;-0.240;2023-05-10T07:42:06;14.40;99.90
22838;DHT22;11585;51.450;-0.240;2023-05-10T07:44:31;14.40;99.90
22838;DHT22;11585;51.450;-0.240;2023-05-10T07:46:57;14.40;99.90
22838;DHT22;11585;51.450;-0.240;2023-05-10T07:52:29;14.40;99.90
22838;DHT22;11585;51.450;-0.240;2023-05-10T07:54:54;14.40;99.90
22838;DHT22;11585;51.450;-0.240;2023-05-10T07:57:22;14.50;99.90
22838;DHT22;11585;51.450;-0.240;2023-05-10T07:59:47;14.50;99.90
22838;DHT22;11585;51.450;-0.240;2023-05-10T08:02:13;14.50;99.90
22838;DHT22;11585;51.450;-0.240;2023-05-10T08:04:38;14.50;99.90
22838;DHT22;11585;51.450;-0.240;2023-05-10T08:07:04;14.60;99.90
22838;DHT22;11585;51.450;-0.240;2023-05-10T08:12:17;14.60;99.90
22838;DHT22;11585;51.450;-0.240;2023-05-10T08:14:43;14.60;99.90
22838;DHT22;11585;51.450;-0.240;2023-05-10T08:17:08;14.60;99.90
22838;DHT22;11585;51.450;-0.240;2023-05-10T08:22:42;14.70;99.90
22838;DHT22;11585;51.450;-0.240;2023-05-10T08:25:07;14.70;99.90
22838;DHT22;11585;51.450;-0.240;2023-05-10T08:27:33;14.70;99.90
22838;DHT22;11585;51.450;-0.240;2023-05-10T08:30:19;14.70;99.90
22838;DHT22;11585;51.450;-0.240;2023-05-10T08:32:45;14.80;99.90
22838;DHT22;11585;51.450;-0.240;2023-05-10T08:35:11;14.80;99.90
22838;DHT22;11585;51.450;-0.240;2023-05-10T08:37:36;14.80;99.90
22838;DHT22;11585;51.450;-0.240;2023-05-10T08:40:03;14.80;99.90
22838;DHT22;11585;51.450;-0.240;2023-05-10T08:42:30;14.80;99.90
22838;DHT22;11585;51.450;-0.240;2023-05-10T08:44:59;14.80;99.90
22838;DHT22;11585;51.450;-0.240;2023-05-10T08:47:25;14.80;99.90
22838;DHT22;11585;51.450;-0.240;2023-05-10T08:50:12;14.90;99.90
22838;DHT22;11585;51.450;-0.240;2023-05-10T08:52:40;14.90;99.90
22838;DHT22;11585;51.450;-0.240;2023-05-10T08:55:07;14.90;99.90
22838;DHT22;11585;51.450;-0.240;2023-05-10T08:57:32;14.90;99.90
22838;DHT22;11585;51.450;-0.240;2023-05-10T09:00:17;14.90;99.90
22838;DHT22;11585;51.450;-0.240;2023-05-10T09:02:43;14.90;99.90
22838;DHT22;11585;51.450;-0.240;2023-05-10T09:05:11;15.00;99.90
22838;DHT22;11585;51.450;-0.240;2023-05-10T09:07:37;15.00;99.90
22838;DHT22;11585;51.450;-0.240;2023-05-10T09:10:04;15.00;99.90
22838;DHT22;11585;51.450;-0.240;2023-05-10T09:12:30;15.00;99.90
22838;DHT22;11585;51.450;-0.240;2023-05-10T09:14:57;15.00;99.90
22838;DHT22;11585;51.450;-0.240;2023-05-10T09:17:25;15.10;99.90
22838;DHT22;11585;51.450;-0.240;2023-05-10T09:20:03;15.10;99.90
22838;DHT22;11585;51.450;-0.240;2023-05-10T09:22:32;15.10;99.90
22838;DHT22;11585;51.450;-0.240;2023-05-10T09:25:08;15.10;99.90
22838;DHT22;11585;51.450;-0.240;2023-05-10T09:27:34;15.20;99.90
22838;DHT22;11585;51.450;-0.240;2023-05-10T09:30:02;15.20;99.90
22838;DHT22;11585;51.450;-0.240;2023-05-10T09:32:42;15.10;99.90
22838;DHT22;11585;51.450;-0.240;2023-05-10T09:35:16;15.20;99.90
22838;DHT22;11585;51.450;-0.240;2023-05-10T09:37:44;15.20;99.90
22838;DHT22;11585;51.450;-0.240;2023-05-10T09:40:18;15.20;99.90
22838;DHT22;11585;51.450;-0.240;2023-05-10T09:42:54;15.20;99.90
22838;DHT22;11585;51.450;-0.240;2023-05-10T09:45:20;15.30;99.90
22838;DHT22;11585;51.450;-0.240;2023-05-10T09:47:46;15.30;99.90
22838;DHT22;11585;51.450;-0.240;2023-05-10T09:50:12;15.30;99.90
22838;DHT22;11585;51.450;-0.240;2023-05-10T09:52:49;15.30;99.90
22838;DHT22;11585;51.450;-0.240;2023-05-10T09:55:17;15.30;99.90
22838;DHT22;11585;51.450;-0.240;2023-05-10T09:57:43;15.30;99.90
22838;DHT22;11585;51.450;-0.240;2023-05-10T10:00:28;15.40;99.90
22838;DHT22;11585;51.450;-0.240;2023-05-10T10:02:59;15.40;99.90
22838;DHT22;11585;51.450;-0.240;2023-05-10T10:05:32;15.50;99.90
22838;DHT22;11585;51.450;-0.240;2023-05-10T10:07:59;15.50;99.90
22838;DHT22;11585;51.450;-0.240;2023-05-10T10:10:26;15.50;99.90
22838;DHT22;11585;51.450;-0.240;2023-05-10T10:12:52;15.50;99.90
22838;DHT22;11585;51.450;-0.240;2023-05-10T10:15:18;15.50;99.90
22838;DHT22;11585;51.450;-0.240;2023-05-10T10:17:44;15.60;99.90
22838;DHT22;11585;51.450;-0.240;2023-05-10T10:20:13;15.60;99.90
22838;DHT22;11585;51.450;-0.240;2023-05-10T10:22:39;15.60;99.90
22838;DHT22;11585;51.450;-0.240;2023-05-10T10:25:05;15.60;99.90
22838;DHT22;11585;51.450;-0.240;2023-05-10T10:32:54;15.80;99.90
22838;DHT22;11585;51.450;-0.240;2023-05-10T10:35:24;15.70;99.90
22838;DHT22;11585;51.450;-0.240;2023-05-10T10:37:51;15.80;99.90
22838;DHT22;11585;51.450;-0.240;2023-05-10T10:42:50;15.80;99.90
22838;DHT22;11585;51.450;-0.240;2023-05-10T10:45:16;15.90;99.90
22838;DHT22;11585;51.450;-0.240;2023-05-10T10:47:41;15.90;99.90
22838;DHT22;11585;51.450;-0.240;2023-05-10T10:50:09;15.90;99.90
22838;DHT22;11585;51.450;-0.240;2023-05-10T10:52:39;16.00;99.90
22838;DHT22;11585;51.450;-0.240;2023-05-10T10:55:16;16.00;99.90
22838;DHT22;11585;51.450;-0.240;2023-05-10T11:00:36;16.00;99.90
22838;DHT22;11585;51.450;-0.240;2023-05-10T11:03:10;16.10;99.90
22838;DHT22;11585;51.450;-0.240;2023-05-10T11:05:48;16.10;99.90
22838;DHT22;11585;51.450;-0.240;2023-05-10T11:08:32;16.10;99.90
22838;DHT22;11585;51.450;-0.240;2023-05-10T11:13:46;16.10;99.90
22838;DHT22;11585;51.450;-0.240;2023-05-10T11:16:22;16.20;99.90
22838;DHT22;11585;51.450;-0.240;2023-05-10T11:19:02;16.20;99.90
22838;DHT22;11585;51.450;-0.240;2023-05-10T11:21:32;16.20;99.90
22838;DHT22;11585;51.450;-0.240;2023-05-10T11:23:59;16.20;99.90
22838;DHT22;11585;51.450;-0.240;2023-05-10T11:26:30;16.20;99.90
22838;DHT22;11585;51.450;-0.240;2023-05-10T11:28:59;16.30;99.90
22838;DHT22;11585;51.450;-0.240;2023-05-10T11:31:26;16.30;99.90
22838;DHT22;11585;51.450;-0.240;2023-05-10T11:33:59;16.40;99.90
22838;DHT22;11585;51.450;-0.240;2023-05-10T11:36:34;16.40;99.90
22838;DHT22;11585;51.450;-0.240;2023-05-10T11:39:00;16.50;99.90
22838;DHT22;11585;51.450;-0.240;2023-05-10T11:41:27;16.50;99.90
22838;DHT22;11585;51.450;-0.240;2023-05-10T11:43:54;16.50;99.90
22838;DHT22;11585;51.450;-0.240;2023-05-10T11:46:21;16.50;99.90
22838;DHT22;11585;51.450;-0.240;2023-05-10T11:48:51;16.50;99.90
22838;DHT22;11585;51.450;-0.240;2023-05-10T11:51:24;16.60;99.90
22838;DHT22;11585;51.450;-0.240;2023-05-10T11:53:53;16.60;99.90
22838;DHT22;11585;51.450;-0.240;2023-05-10T11:56:18;16.60;99.90
22838;DHT22;11585;51.450;-0.240;2023-05-10T11:58:57;16.60;99.90
22838;DHT22;11585;51.450;-0.240;2023-05-10T12:01:24;16.70;99.90
22838;DHT22;11585;51.450;-0.240;2023-05-10T12:03:57;16.60;99.90
22838;DHT22;11585;51.450;-0.240;2023-05-10T12:06:37;16.70;99.90
22838;DHT22;11585;51.450;-0.240;2023-05-10T12:09:08;16.70;99.90
22838;DHT22;11585;51.450;-0.240;2023-05-10T12:11:40;16.70;99.90
22838;DHT22;11585;51.450;-0.240;2023-05-10T12:14:07;16.70;99.90
22838;DHT22;11585;51.450;-0.240;2023-05-10T12:16:33;16.70;99.90
22838;DHT22;11585;51.450;-0.240;2023-05-10T12:19:01;16.80;99.90
22838;DHT22;11585;51.450;-0.240;2023-05-10T12:21:28;16.70;99.90
22838;DHT22;11585;51.450;-0.240;2023-05-10T12:24:02;16.80;99.90
22838;DHT22;11585;51.450;-0.240;2023-05-10T12:26:28;16.80;99.90
22838;DHT22;11585;51.450;-0.240;2023-05-10T12:29:14;16.80;99.90
22838;DHT22;11585;51.450;-0.240;2023-05-10T12:34:38;16.90;99.90
22838;DHT22;11585;51.450;-0.240;2023-05-10T12:37:04;16.90;99.90
22838;DHT22;11585;51.450;-0.240;2023-05-10T12:39:59;16.90;99.90
22838;DHT22;11585;51.450;-0.240;2023-05-10T12:42:25;16.90;99.90
22838;DHT22;11585;51.450;-0.240;2023-05-10T12:44:56;16.90;99.90
22838;DHT22;11585;51.450;-0.240;2023-05-10T12:47:22;16.90;99.90
22838;DHT22;11585;51.450;-0.240;2023-05-10T12:49:48;17.00;99.90
22838;DHT22;11585;51.450;-0.240;2023-05-10T12:52:13;17.00;99.90
22838;DHT22;11585;51.450;-0.240;2023-05-10T12:54:39;17.00;99.90
22838;DHT22;11585;51.450;-0.240;2023-05-10T12:57:05;17.00;99.90
22838;DHT22;11585;51.450;-0.240;2023-05-10T12:59:31;17.00;99.90
22838;DHT22;11585;51.450;-0.240;2023-05-10T13:01:57;17.00;99.90
22838;DHT22;11585;51.450;-0.240;2023-05-10T13:04:23;17.00;99.90
22838;DHT22;11585;51.450;-0.240;2023-05-10T13:06:49;17.00;99.90
22838;DHT22;11585;51.450;-0.240;2023-05-10T13:09:34;17.00;99.90
22838;DHT22;11585;51.450;-0.240;2023-05-10T13:12:00;17.00;99.90
22838;DHT22;11585;51.450;-0.240;2023-05-10T13:14:26;17.00;99.90
22838;DHT22;11585;51.450;-0.240;2023-05-10T13:16:51;17.00;99.90
22838;DHT22;11585;51.450;-0.240;2023-05-10T13:19:17;17.00;99.90
22838;DHT22;11585;51.450;-0.240;2023-05-10T13:21:43;17.00;99.90
22838;DHT22;11585;51.450;-0.240;2023-05-10T13:24:12;17.00;99.90
22838;DHT22;11585;51.450;-0.240;2023-05-10T13:26:39;16.90;99.90
22838;DHT22;11585;51.450;-0.240;2023-05-10T13:29:07;16.90;99.90
22838;DHT22;11585;51.450;-0.240;2023-05-10T13:31:33;16.90;99.90
22838;DHT22;11585;51.450;-0.240;2023-05-10T13:34:01;16.90;99.90
22838;DHT22;11585;51.450;-0.240;2023-05-10T13:36:28;16.80;99.90
22838;DHT22;11585;51.450;-0.240;2023-05-10T13:38:54;16.80;99.90
22838;DHT22;11585;51.450;-0.240;2023-05-10T13:41:25;16.80;99.90
22838;DHT22;11585;51.450;-0.240;2023-05-10T13:43:59;16.80;99.90
22838;DHT22;11585;51.450;-0.240;2023-05-10T13:46:32;16.80;99.90
22838;DHT22;11585;51.450;-0.240;2023-05-10T13:49:18;16.70;99.90
22838;DHT22;11585;51.450;-0.240;2023-05-10T13:52:09;16.70;99.90
22838;DHT22;11585;51.450;-0.240;2023-05-10T13:54:39;16.60;99.90
22838;DHT22;11585;51.450;-0.240;2023-05-10T13:57:23;16.60;99.90
22838;DHT22;11585;51.450;-0.240;2023-05-10T13:59:54;16.60;99.90
22838;DHT22;11585;51.450;-0.240;2023-05-10T14:02:20;16.50;99.90
22838;DHT22;11585;51.450;-0.240;2023-05-10T14:04:46;16.50;99.90
22838;DHT22;11585;51.450;-0.240;2023-05-10T14:07:12;16.50;99.90
22838;DHT22;11585;51.450;-0.240;2023-05-10T14:09:38;16.50;99.90
22838;DHT22;11585;51.450;-0.240;2023-05-10T14:12:06;16.50;99.90
22838;DHT22;11585;51.450;-0.240;2023-05-10T14:14:37;16.50;99.90
22838;DHT22;11585;51.450;-0.240;2023-05-10T14:17:05;16.50;99.90
22838;DHT22;11585;51.450;-0.240;2023-05-10T14:19:56;16.50;99.90
22838;DHT22;11585;51.450;-0.240;2023-05-10T14:22:37;16.50;99.90
22838;DHT22;11585;51.450;-0.240;2023-05-10T14:25:03;16.40;99.90
22838;DHT22;11585;51.450;-0.240;2023-05-10T14:27:29;16.50;99.90
22838;DHT22;11585;51.450;-0.240;2023-05-10T14:29:55;16.50;99.90
22838;DHT22;11585;51.450;-0.240;2023-05-10T14:32:23;16.50;99.90
22838;DHT22;11585;51.450;-0.240;2023-05-10T14:34:52;16.40;99.90
22838;DHT22;11585;51.450;-0.240;2023-05-10T14:37:21;16.50;99.90
22838;DHT22;11585;51.450;-0.240;2023-05-10T14:39:50;16.50;99.90
22838;DHT22;11585;51.450;-0.240;2023-05-10T14:42:18;16.50;99.90
22838;DHT22;11585;51.450;-0.240;2023-05-10T14:44:44;16.50;99.90
22838;DHT22;11585;51.450;-0.240;2023-05-10T14:47:12;16.50;99.90
22838;DHT22;11585;51.450;-0.240;2023-05-10T14:49:47;16.40;99.90
22838;DHT22;11585;51.450;-0.240;2023-05-10T14:52:12;16.40;99.90
22838;DHT22;11585;51.450;-0.240;2023-05-10T14:54:43;16.40;99.90
22838;DHT22;11585;51.450;-0.240;2023-05-10T14:57:09;16.40;99.90
22838;DHT22;11585;51.450;-0.240;2023-05-10T14:59:36;16.40;99.90
22838;DHT22;11585;51.450;-0.240;2023-05-10T15:02:02;16.40;99.90
22838;DHT22;11585;51.450;-0.240;2023-05-10T15:04:29;16.40;99.90
22838;DHT22;11585;51.450;-0.240;2023-05-10T15:06:55;16.30;99.90
22838;DHT22;11585;51.450;-0.240;2023-05-10T15:09:25;16.30;99.90
22838;DHT22;11585;51.450;-0.240;2023-05-10T15:11:53;16.30;99.90
22838;DHT22;11585;51.450;-0.240;2023-05-10T15:14:19;16.30;99.90
22838;DHT22;11585;51.450;-0.240;2023-05-10T15:16:44;16.30;99.90
22838;DHT22;11585;51.450;-0.240;2023-05-10T15:19:12;16.30;99.90
22838;DHT22;11585;51.450;-0.240;2023-05-10T15:21:38;16.20;99.90
22838;DHT22;11585;51.450;-0.240;2023-05-10T15:24:07;16.20;99.90
22838;DHT22;11585;51.450;-0.240;2023-05-10T15:26:33;16.30;99.90
22838;DHT22;11585;51.450;-0.240;2023-05-10T15:28:59;16.20;99.90
22838;DHT22;11585;51.450;-0.240;2023-05-10T15:31:24;16.20;99.90
22838;DHT22;11585;51.450;-0.240;2023-05-10T15:33:50;16.20;99.90
22838;DHT22;11585;51.450;-0.240;2023-05-10T15:36:16;16.20;99.90
22838;DHT22;11585;51.450;-0.240;2023-05-10T15:38:45;16.30;99.90
22838;DHT22;11585;51.450;-0.240;2023-05-10T15:41:11;16.20;99.90
22838;DHT22;11585;51.450;-0.240;2023-05-10T15:43:37;16.30;99.90
22838;DHT22;11585;51.450;-0.240;2023-05-10T15:46:02;16.20;99.90
22838;DHT22;11585;51.450;-0.240;2023-05-10T15:48:28;16.30;99.90
22838;DHT22;11585;51.450;-0.240;2023-05-10T15:50:56;16.30;99.90
22838;DHT22;11585;51.450;-0.240;2023-05-10T15:53:22;16.30;99.90
22838;DHT22;11585;51.450;-0.240;2023-05-10T15:55:47;16.30;99.90
22838;DHT22;11585;51.450;-0.240;2023-05-10T15:58:34;16.30;99.90
22838;DHT22;11585;51.450;-0.240;2023-05-10T16:01:00;16.30;99.90
22838;DHT22;11585;51.450;-0.240;2023-05-10T16:03:26;16.30;99.90
22838;DHT22;11585;51.450;-0.240;2023-05-10T16:05:51;16.30;99.90
22838;DHT22;11585;51.450;-0.240;2023-05-10T16:11:42;16.40;99.90
22838;DHT22;11585;51.450;-0.240;2023-05-10T16:14:08;16.40;99.90
22838;DHT22;11585;51.450;-0.240;2023-05-10T16:16:34;16.30;99.90
22838;DHT22;11585;51.450;-0.240;2023-05-10T16:22:25;16.30;99.90
22838;DHT22;11585;51.450;-0.240;2023-05-10T16:24:54;16.40;99.90
22838;DHT22;11585;51.450;-0.240;2023-05-10T16:27:21;16.40;99.90
22838;DHT22;11585;51.450;-0.240;2023-05-10T16:29:49;16.40;99.90
22838;DHT22;11585;51.450;-0.240;2023-05-10T16:32:18;16.40;99.90
22838;DHT22;11585;51.450;-0.240;2023-05-10T16:34:44;16.40;99.90
22838;DHT22;11585;51.450;-0.240;2023-05-10T16:37:10;16.30;99.90
22838;DHT22;11585;51.450;-0.240;2023-05-10T16:42:24;16.30;99.90
22838;DHT22;11585;51.450;-0.240;2023-05-10T16:44:50;16.20;99.90
22838;DHT22;11585;51.450;-0.240;2023-05-10T16:47:18;16.30;99.90
22838;DHT22;11585;51.450;-0.240;2023-05-10T16:50:03;16.20;99.90
22838;DHT22;11585;51.450;-0.240;2023-05-10T16:52:33;16.20;99.90
22838;DHT22;11585;51.450;-0.240;2023-05-10T16:54:59;16.20;99.90
22838;DHT22;11585;51.450;-0.240;2023-05-10T16:57:25;16.20;99.90
22838;DHT22;11585;51.450;-0.240;2023-05-10T17:00:10;16.10;99.90
22838;DHT22;11585;51.450;-0.240;2023-05-10T17:02:36;16.10;99.90
22838;DHT22;11585;51.450;-0.240;2023-05-10T17:05:02;16.10;99.90
22838;DHT22;11585;51.450;-0.240;2023-05-10T17:07:28;16.10;99.90
22838;DHT22;11585;51.450;-0.240;2023-05-10T17:13:16;16.00;99.90
22838;DHT22;11585;51.450;-0.240;2023-05-10T17:15:44;15.90;99.90
22838;DHT22;11585;51.450;-0.240;2023-05-10T17:18:11;15.90;99.90
22838;DHT22;11585;51.450;-0.240;2023-05-10T17:20:36;15.90;99.90
22838;DHT22;11585;51.450;-0.240;2023-05-10T17:23:02;15.90;99.90
22838;DHT22;11585;51.450;-0.240;2023-05-10T17:25:28;15.90;99.90
22838;DHT22;11585;51.450;-0.240;2023-05-10T17:27:53;15.80;99.90
22838;DHT22;11585;51.450;-0.240;2023-05-10T17:30:19;15.80;99.90
22838;DHT22;11585;51.450;-0.240;2023-05-10T17:32:50;15.80;99.90
22838;DHT22;11585;51.450;-0.240;2023-05-10T17:35:16;15.90;99.90
22838;DHT22;11585;51.450;-0.240;2023-05-10T17:37:42;15.80;99.90
22838;DHT22;11585;51.450;-0.240;2023-05-10T17:43:35;15.80;99.90
22838;DHT22;11585;51.450;-0.240;2023-05-10T17:46:00;15.80;99.90